createdAt,value
2017-08-27T00:00:50.971Z,21.50
2017-08-27T00:03:19.276Z,21.50
2017-08-27T00:05:48.356Z,21.30
2017-08-27T00:08:16.636Z,21.30
2017-08-27T00:10:44.895Z,21.30
2017-08-27T00:13:13.175Z,21.30
2017-08-27T00:15:42.223Z,21.30
2017-08-27T00:18:10.524Z,21.20
2017-08-27T00:20:38.844Z,21.20
2017-08-27T00:23:07.089Z,21.20
2017-08-27T00:25:35.479Z,21.20
2017-08-27T00:28:03.743Z,21.20
2017-08-27T00:30:32.144Z,21.10
2017-08-27T00:33:00.458Z,21.10
2017-08-27T00:35:28.871Z,21.10
2017-08-27T00:37:57.285Z,21.10
2017-08-27T00:40:26.143Z,21.00
2017-08-27T00:42:54.405Z,21.00
2017-08-27T00:45:23.518Z,21.00
2017-08-27T00:47:51.886Z,21.10
2017-08-27T00:50:20.215Z,21.20
2017-08-27T00:52:48.509Z,21.20
2017-08-27T00:55:16.807Z,21.30
2017-08-27T00:57:45.098Z,21.40
2017-08-27T01:00:13.699Z,21.40
2017-08-27T01:02:42.787Z,21.40
2017-08-27T01:05:11.099Z,21.40
2017-08-27T01:07:39.428Z,21.40
2017-08-27T01:10:07.887Z,21.40
2017-08-27T01:12:36.287Z,21.40
2017-08-27T01:15:04.670Z,21.40
2017-08-27T01:17:32.968Z,21.40
2017-08-27T01:20:01.253Z,21.50
2017-08-27T01:22:29.784Z,21.50
2017-08-27T01:24:58.207Z,21.50
2017-08-27T01:27:26.518Z,21.50
2017-08-27T01:29:54.820Z,21.60
2017-08-27T01:32:23.199Z,21.70
2017-08-27T01:34:51.526Z,21.80
2017-08-27T01:37:19.831Z,21.80
2017-08-27T01:39:48.118Z,21.80
2017-08-27T01:42:16.375Z,21.90
2017-08-27T01:44:46.124Z,22.00
2017-08-27T01:47:14.418Z,22.00
2017-08-27T01:49:42.962Z,21.90
2017-08-27T01:52:11.259Z,21.80
2017-08-27T01:54:39.577Z,21.60
2017-08-27T01:57:07.849Z,21.60
2017-08-27T01:59:36.548Z,21.70
2017-08-27T02:02:04.964Z,21.80
2017-08-27T02:04:33.281Z,21.90
2017-08-27T02:07:01.565Z,21.90
2017-08-27T02:09:29.881Z,21.90
2017-08-27T02:11:58.141Z,22.00
2017-08-27T02:14:26.513Z,22.00
2017-08-27T02:16:54.865Z,22.10
2017-08-27T02:19:23.124Z,22.10
2017-08-27T02:21:52.299Z,22.20
2017-08-27T02:24:20.608Z,22.20
2017-08-27T02:26:48.879Z,22.20
2017-08-27T02:29:17.300Z,22.20
2017-08-27T02:31:45.590Z,22.20
2017-08-27T02:34:13.895Z,22.20
2017-08-27T02:36:42.180Z,22.30
2017-08-27T02:39:10.486Z,22.30
2017-08-27T02:41:38.784Z,22.30
2017-08-27T02:44:07.527Z,22.30
2017-08-27T02:46:35.892Z,22.30
2017-08-27T02:49:04.164Z,22.30
2017-08-27T02:51:32.425Z,22.30
2017-08-27T02:54:00.790Z,22.30
2017-08-27T02:56:29.060Z,22.30
2017-08-27T02:58:57.338Z,22.30
2017-08-27T03:01:25.624Z,22.30
2017-08-27T03:03:54.222Z,22.20
2017-08-27T03:06:23.269Z,22.30
2017-08-27T03:08:51.523Z,22.20
2017-08-27T03:11:19.828Z,22.30
2017-08-27T03:13:48.087Z,22.30
2017-08-27T03:16:16.694Z,22.30
2017-08-27T03:18:45.058Z,22.30
2017-08-27T03:21:13.332Z,22.20
2017-08-27T03:23:41.782Z,22.10
2017-08-27T03:26:10.130Z,22.00
2017-08-27T03:28:39.266Z,21.90
2017-08-27T03:31:07.608Z,21.90
2017-08-27T03:33:36.104Z,21.80
2017-08-27T03:36:04.548Z,21.70
2017-08-27T03:38:32.932Z,21.80
2017-08-27T03:41:01.934Z,21.90
2017-08-27T03:43:30.292Z,21.90
2017-08-27T03:45:58.612Z,22.00
2017-08-27T03:48:27.058Z,22.00
2017-08-27T03:50:55.540Z,21.90
2017-08-27T03:53:23.860Z,21.80
2017-08-27T03:55:52.524Z,21.80
2017-08-27T03:58:20.809Z,21.60
2017-08-27T04:00:49.246Z,21.60
2017-08-27T04:03:17.845Z,21.50
2017-08-27T04:05:46.141Z,21.40
2017-08-27T04:08:14.548Z,21.30
2017-08-27T04:10:43.685Z,21.40
2017-08-27T04:13:12.052Z,21.50
2017-08-27T04:15:40.335Z,21.50
2017-08-27T04:18:08.651Z,21.60
2017-08-27T04:20:36.920Z,21.60
2017-08-27T04:23:05.397Z,21.50
2017-08-27T04:25:33.891Z,21.60
2017-08-27T04:28:02.130Z,21.60
2017-08-27T04:30:30.506Z,21.60
2017-08-27T04:32:58.772Z,21.60
2017-08-27T04:35:27.114Z,21.60
2017-08-27T04:37:55.431Z,21.60
2017-08-27T04:40:23.768Z,21.50
2017-08-27T04:42:52.040Z,21.50
2017-08-27T04:45:20.279Z,21.30
2017-08-27T04:47:48.605Z,21.30
2017-08-27T04:50:17.035Z,21.60
2017-08-27T04:52:45.295Z,21.60
2017-08-27T04:55:13.600Z,21.60
2017-08-27T04:57:41.939Z,21.60
2017-08-27T05:00:10.315Z,21.50
2017-08-27T05:02:38.805Z,21.10
2017-08-27T05:05:07.128Z,21.40
2017-08-27T05:07:35.449Z,21.40
2017-08-27T05:10:03.951Z,21.40
2017-08-27T05:12:32.492Z,21.40
2017-08-27T05:15:00.801Z,21.30
2017-08-27T05:17:29.563Z,21.30
2017-08-27T05:19:57.861Z,21.30
2017-08-27T05:22:26.134Z,21.30
2017-08-27T05:24:54.423Z,21.30
2017-08-27T05:27:22.668Z,21.30
2017-08-27T05:29:51.029Z,21.30
2017-08-27T05:32:19.373Z,21.30
2017-08-27T05:34:48.046Z,21.20
2017-08-27T05:37:16.299Z,21.20
2017-08-27T05:39:44.648Z,21.10
2017-08-27T05:42:12.920Z,21.00
2017-08-27T05:44:41.195Z,21.00
2017-08-27T05:47:09.513Z,21.10
2017-08-27T05:49:37.914Z,21.10
2017-08-27T05:52:06.200Z,21.10
2017-08-27T05:54:34.464Z,21.20
2017-08-27T05:57:02.741Z,21.20
2017-08-27T05:59:31.055Z,20.80
2017-08-27T06:01:59.504Z,21.20
2017-08-27T06:04:28.661Z,21.40
2017-08-27T06:06:56.947Z,21.30
2017-08-27T06:09:25.208Z,21.40
2017-08-27T06:11:54.079Z,21.40
2017-08-27T06:14:22.454Z,21.40
2017-08-27T06:16:50.793Z,21.50
2017-08-27T06:19:19.118Z,21.20
2017-08-27T06:21:47.393Z,21.60
2017-08-27T06:24:15.672Z,21.60
2017-08-27T06:26:44.742Z,21.70
2017-08-27T06:29:13.019Z,21.70
2017-08-27T06:31:42.102Z,21.80
2017-08-27T06:34:10.352Z,21.80
2017-08-27T06:36:38.648Z,21.80
2017-08-27T06:39:06.916Z,21.90
2017-08-27T06:41:35.187Z,22.00
2017-08-27T06:44:03.495Z,22.00
2017-08-27T06:46:31.800Z,22.10
2017-08-27T06:49:00.075Z,22.10
2017-08-27T06:51:29.113Z,22.10
2017-08-27T06:53:57.369Z,22.10
2017-08-27T06:56:25.651Z,22.10
2017-08-27T06:58:53.902Z,22.10
2017-08-27T07:01:22.203Z,22.10
2017-08-27T07:03:50.624Z,22.10
2017-08-27T07:06:19.006Z,22.10
2017-08-27T07:08:47.260Z,22.20
2017-08-27T07:11:15.558Z,22.20
2017-08-27T07:13:44.760Z,22.20
2017-08-27T07:16:13.070Z,22.20
2017-08-27T07:18:42.118Z,22.00
2017-08-27T07:21:11.452Z,22.00
2017-08-27T07:23:39.988Z,22.10
2017-08-27T07:26:08.388Z,22.20
2017-08-27T07:28:36.669Z,22.30
2017-08-27T07:31:04.936Z,22.30
2017-08-27T07:33:33.384Z,22.20
2017-08-27T07:36:01.780Z,22.30
2017-08-27T07:38:30.051Z,22.30
2017-08-27T07:40:58.325Z,22.40
2017-08-27T07:43:26.627Z,22.60
2017-08-27T07:45:54.892Z,22.60
2017-08-27T07:48:23.492Z,22.70
2017-08-27T07:50:51.754Z,22.70
2017-08-27T07:53:20.060Z,22.40
2017-08-27T07:55:48.373Z,22.20
2017-08-27T07:58:16.761Z,22.20
2017-08-27T08:00:45.299Z,22.40
2017-08-27T08:03:14.251Z,22.40
2017-08-27T08:05:42.805Z,22.40
2017-08-27T08:08:12.112Z,22.60
2017-08-27T08:10:40.748Z,22.60
2017-08-27T08:13:09.116Z,22.60
2017-08-27T08:15:37.575Z,22.70
2017-08-27T08:18:05.923Z,22.80
2017-08-27T08:20:34.355Z,22.80
2017-08-27T08:23:02.646Z,22.80
2017-08-27T08:25:31.063Z,22.80
2017-08-27T08:27:59.447Z,22.90
2017-08-27T08:30:27.741Z,22.90
2017-08-27T08:32:56.039Z,22.80
2017-08-27T08:35:24.492Z,22.90
2017-08-27T08:37:52.767Z,22.90
2017-08-27T08:40:21.245Z,22.80
2017-08-27T08:42:49.571Z,22.60
2017-08-27T08:45:17.961Z,22.60
2017-08-27T08:47:46.395Z,22.50
2017-08-27T08:50:14.755Z,22.60
2017-08-27T08:52:43.101Z,22.70
2017-08-27T08:55:11.447Z,22.80
2017-08-27T08:57:39.752Z,23.00
2017-08-27T09:00:08.030Z,23.00
2017-08-27T09:02:36.375Z,22.80
2017-08-27T09:05:04.664Z,22.90
2017-08-27T09:07:32.998Z,22.90
2017-08-27T09:10:01.323Z,22.90
2017-08-27T09:12:29.621Z,23.00
2017-08-27T09:14:57.914Z,23.10
2017-08-27T09:17:26.263Z,23.20
2017-08-27T09:19:54.652Z,23.40
2017-08-27T09:22:22.948Z,23.60
2017-08-27T09:24:51.239Z,23.50
2017-08-27T09:27:19.531Z,23.50
2017-08-27T09:29:47.808Z,23.30
2017-08-27T09:32:16.104Z,23.20
2017-08-27T09:34:44.421Z,23.00
2017-08-27T09:37:12.726Z,22.90
2017-08-27T09:39:41.159Z,23.00
2017-08-27T09:42:09.409Z,22.90
2017-08-27T09:44:37.859Z,22.80
2017-08-27T09:47:06.111Z,22.80
2017-08-27T09:49:34.472Z,22.90
2017-08-27T09:52:02.783Z,23.10
2017-08-27T09:54:31.054Z,23.20
2017-08-27T09:56:59.403Z,23.30
2017-08-27T09:59:27.730Z,23.50
2017-08-27T10:01:56.022Z,23.70
2017-08-27T10:04:24.321Z,23.70
2017-08-27T10:06:52.624Z,23.60
2017-08-27T10:09:21.381Z,23.50
2017-08-27T10:11:49.669Z,23.50
2017-08-27T10:14:17.961Z,23.70
2017-08-27T10:16:46.266Z,23.80
2017-08-27T10:19:14.783Z,23.80
2017-08-27T10:21:43.086Z,23.80
2017-08-27T10:24:11.383Z,23.70
2017-08-27T10:26:39.660Z,23.70
2017-08-27T10:29:07.938Z,23.60
2017-08-27T10:31:36.221Z,23.60
2017-08-27T10:34:04.530Z,23.60
2017-08-27T10:36:33.806Z,23.60
2017-08-27T10:39:02.109Z,23.70
2017-08-27T10:41:30.427Z,23.80
2017-08-27T10:43:58.716Z,23.80
2017-08-27T10:46:27.053Z,23.80
2017-08-27T10:48:55.464Z,23.80
2017-08-27T10:51:23.981Z,23.80
2017-08-27T10:53:52.281Z,23.80
2017-08-27T10:56:20.587Z,23.80
2017-08-27T10:58:48.865Z,23.90
2017-08-27T11:01:17.146Z,24.00
2017-08-27T11:03:45.564Z,24.20
2017-08-27T11:06:13.845Z,24.30
2017-08-27T11:08:42.252Z,24.40
2017-08-27T11:11:10.588Z,24.40
2017-08-27T11:13:38.900Z,24.40
2017-08-27T11:16:07.180Z,24.20
2017-08-27T11:18:35.562Z,24.20
2017-08-27T11:21:03.908Z,24.30
2017-08-27T11:23:32.186Z,24.40
2017-08-27T11:26:00.523Z,24.60
2017-08-27T11:28:28.801Z,24.70
2017-08-27T11:30:57.223Z,24.70
2017-08-27T11:33:25.501Z,24.50
2017-08-27T11:35:53.972Z,24.40
2017-08-27T11:38:22.286Z,24.30
2017-08-27T11:40:50.731Z,24.30
2017-08-27T11:43:19.057Z,24.20
2017-08-27T11:45:47.359Z,24.20
2017-08-27T11:48:15.682Z,24.40
2017-08-27T11:50:44.367Z,24.50
2017-08-27T11:53:12.807Z,24.40
2017-08-27T11:55:41.214Z,24.40
2017-08-27T11:58:10.508Z,24.70
2017-08-27T12:00:40.481Z,24.70
2017-08-27T12:03:08.753Z,24.80
2017-08-27T12:05:37.097Z,24.80
2017-08-27T12:08:06.166Z,24.90
2017-08-27T12:10:34.476Z,24.90
2017-08-27T12:13:02.812Z,24.90
2017-08-27T12:15:31.583Z,24.80
2017-08-27T12:17:59.947Z,24.60
2017-08-27T12:20:28.242Z,24.70
2017-08-27T12:22:56.575Z,24.80
2017-08-27T12:25:25.148Z,24.80
2017-08-27T12:27:54.601Z,25.00
2017-08-27T12:30:23.799Z,24.90
2017-08-27T12:32:52.066Z,24.90
2017-08-27T12:35:20.346Z,25.00
2017-08-27T12:37:48.692Z,24.90
2017-08-27T12:40:17.054Z,24.90
2017-08-27T12:42:46.109Z,25.00
2017-08-27T12:45:14.452Z,25.00
2017-08-27T12:47:42.763Z,25.10
2017-08-27T12:50:11.072Z,25.20
2017-08-27T12:52:39.319Z,25.10
2017-08-27T12:55:07.673Z,25.10
2017-08-27T12:57:35.999Z,25.10
2017-08-27T13:00:04.278Z,25.20
2017-08-27T13:02:32.784Z,25.20
2017-08-27T13:05:01.059Z,25.20
2017-08-27T13:07:29.446Z,25.20
2017-08-27T13:09:57.785Z,25.20
2017-08-27T13:12:26.085Z,25.20
2017-08-27T13:14:54.425Z,25.30
2017-08-27T13:17:23.565Z,25.30
2017-08-27T13:19:51.849Z,25.30
2017-08-27T13:22:20.125Z,25.30
2017-08-27T13:24:48.476Z,25.30
2017-08-27T13:27:18.653Z,25.20
2017-08-27T13:29:49.037Z,25.10
2017-08-27T13:32:18.331Z,25.10
2017-08-27T13:34:47.552Z,24.90
2017-08-27T13:37:15.836Z,24.90
2017-08-27T13:39:44.389Z,24.80
2017-08-27T13:42:12.889Z,24.80
2017-08-27T13:44:42.102Z,24.80
2017-08-27T13:47:10.508Z,24.90
2017-08-27T13:49:39.458Z,25.10
2017-08-27T13:52:07.765Z,25.20
2017-08-27T13:54:36.954Z,25.30
2017-08-27T13:57:05.242Z,25.40
2017-08-27T13:59:33.530Z,25.50
2017-08-27T14:02:01.909Z,25.60
2017-08-27T14:04:30.326Z,25.60
2017-08-27T14:06:58.612Z,25.60
2017-08-27T14:09:26.901Z,25.80
2017-08-27T14:11:55.297Z,25.80
2017-08-27T14:14:23.585Z,25.80
2017-08-27T14:16:51.873Z,25.70
2017-08-27T14:19:20.432Z,25.70
2017-08-27T14:21:49.120Z,25.70
2017-08-27T14:24:17.817Z,25.80
2017-08-27T14:26:46.586Z,25.80
2017-08-27T14:29:15.025Z,25.90
2017-08-27T14:31:43.424Z,26.00
2017-08-27T14:34:12.498Z,26.00
2017-08-27T14:36:41.470Z,26.00
2017-08-27T14:39:09.895Z,26.00
2017-08-27T14:41:39.175Z,25.90
2017-08-27T14:44:07.875Z,25.80
2017-08-27T14:46:36.381Z,25.80
2017-08-27T14:49:05.663Z,25.90
2017-08-27T14:51:33.962Z,26.00
2017-08-27T14:54:02.353Z,26.10
2017-08-27T14:56:30.687Z,26.10
2017-08-27T14:58:59.154Z,26.20
2017-08-27T15:01:27.429Z,26.30
2017-08-27T15:03:55.737Z,26.40
2017-08-27T15:06:24.782Z,26.20
2017-08-27T15:08:53.123Z,26.30
2017-08-27T15:11:21.412Z,26.20
2017-08-27T15:13:49.724Z,26.20
2017-08-27T15:16:18.063Z,26.00
2017-08-27T15:18:46.390Z,25.90
2017-08-27T15:21:14.753Z,25.80
2017-08-27T15:23:43.033Z,25.80
2017-08-27T15:26:11.338Z,25.90
2017-08-27T15:28:39.734Z,25.90
2017-08-27T15:31:08.045Z,25.80
2017-08-27T15:33:36.335Z,25.80
2017-08-27T15:36:04.666Z,25.80
2017-08-27T15:38:34.989Z,25.90
2017-08-27T15:41:03.539Z,25.90
2017-08-27T15:43:31.921Z,25.80
2017-08-27T15:46:00.185Z,25.80
2017-08-27T15:48:28.445Z,25.80
2017-08-27T15:50:56.820Z,25.70
2017-08-27T15:53:25.075Z,25.60
2017-08-27T15:55:53.370Z,25.60
2017-08-27T15:58:21.704Z,25.60
2017-08-27T16:00:50.210Z,25.50
2017-08-27T16:03:18.526Z,25.50
2017-08-27T16:05:46.971Z,25.60
2017-08-27T16:08:15.379Z,25.80
2017-08-27T16:10:43.650Z,26.00
2017-08-27T16:13:11.962Z,26.20
2017-08-27T16:15:40.296Z,26.20
2017-08-27T16:18:08.548Z,26.10
2017-08-27T16:20:36.897Z,26.10
2017-08-27T16:23:05.218Z,26.20
2017-08-27T16:25:33.493Z,26.30
2017-08-27T16:28:01.834Z,26.40
2017-08-27T16:30:30.120Z,26.40
2017-08-27T16:32:58.432Z,26.40
2017-08-27T16:35:26.778Z,26.40
2017-08-27T16:37:55.119Z,26.20
2017-08-27T16:40:23.407Z,26.00
2017-08-27T16:42:51.665Z,26.00
2017-08-27T16:45:19.980Z,25.90
2017-08-27T16:47:48.238Z,26.00
2017-08-27T16:50:16.516Z,26.00
2017-08-27T16:52:44.861Z,26.00
2017-08-27T16:55:13.214Z,26.00
2017-08-27T16:57:41.562Z,25.90
2017-08-27T17:00:09.860Z,25.90
2017-08-27T17:02:38.123Z,25.80
2017-08-27T17:05:06.583Z,25.70
2017-08-27T17:07:34.899Z,25.60
2017-08-27T17:10:03.268Z,25.50
2017-08-27T17:12:31.644Z,25.50
2017-08-27T17:14:59.972Z,25.50
2017-08-27T17:17:28.448Z,25.40
2017-08-27T17:19:56.828Z,25.40
2017-08-27T17:22:25.305Z,25.30
2017-08-27T17:24:54.318Z,25.20
2017-08-27T17:27:22.607Z,25.10
2017-08-27T17:29:50.964Z,25.10
2017-08-27T17:32:19.294Z,25.10
2017-08-27T17:34:47.785Z,25.10
2017-08-27T17:37:16.201Z,25.20
2017-08-27T17:39:44.491Z,25.20
2017-08-27T17:42:12.829Z,25.10
2017-08-27T17:44:41.486Z,25.10
2017-08-27T17:47:09.976Z,25.10
2017-08-27T17:49:38.335Z,25.10
2017-08-27T17:52:07.014Z,25.10
2017-08-27T17:54:36.027Z,25.00
2017-08-27T17:57:04.399Z,25.00
2017-08-27T17:59:32.734Z,24.90
2017-08-27T18:02:01.344Z,24.90
2017-08-27T18:04:29.711Z,24.90
2017-08-27T18:06:58.062Z,24.90
2017-08-27T18:09:26.792Z,24.80
2017-08-27T18:11:55.407Z,24.80
2017-08-27T18:14:23.757Z,24.80
2017-08-27T18:16:53.149Z,24.80
2017-08-27T18:19:21.495Z,24.80
2017-08-27T18:21:49.905Z,25.10
2017-08-27T18:24:18.511Z,25.00
2017-08-27T18:26:47.601Z,25.10
2017-08-27T18:29:16.086Z,25.10
2017-08-27T18:31:44.483Z,25.10
2017-08-27T18:34:12.928Z,25.10
2017-08-27T18:36:41.408Z,25.10
2017-08-27T18:39:09.891Z,25.20
2017-08-27T18:41:38.426Z,25.30
2017-08-27T18:44:07.260Z,25.40
2017-08-27T18:46:35.657Z,25.40
2017-08-27T18:49:04.007Z,25.50
2017-08-27T18:51:32.451Z,25.50
2017-08-27T18:54:00.878Z,25.40
2017-08-27T18:56:29.300Z,25.40
2017-08-27T18:58:57.759Z,25.30
2017-08-27T19:01:26.139Z,25.20
2017-08-27T19:03:58.157Z,25.00
2017-08-27T19:06:26.477Z,24.90
2017-08-27T19:08:54.775Z,24.70
2017-08-27T19:11:23.328Z,24.60
2017-08-27T19:13:51.724Z,24.50
2017-08-27T19:16:20.232Z,24.40
2017-08-27T19:18:48.770Z,24.30
2017-08-27T19:21:17.270Z,24.20
2017-08-27T19:23:45.793Z,24.10
2017-08-27T19:26:14.826Z,24.10
2017-08-27T19:28:43.373Z,24.00
2017-08-27T19:31:12.313Z,24.00
2017-08-27T19:33:41.366Z,24.10
2017-08-27T19:36:09.975Z,24.10
2017-08-27T19:38:38.571Z,24.10
2017-08-27T19:41:07.247Z,24.10
2017-08-27T19:43:35.840Z,24.10
2017-08-27T19:46:04.306Z,24.00
2017-08-27T19:48:32.903Z,23.90
2017-08-27T19:51:01.332Z,23.70
2017-08-27T19:53:30.169Z,23.60
2017-08-27T19:55:58.584Z,23.50
2017-08-27T19:58:27.119Z,23.40
2017-08-27T20:00:55.477Z,23.30
2017-08-27T20:03:23.884Z,23.20
2017-08-27T20:05:52.375Z,23.20
2017-08-27T20:08:20.861Z,23.10
2017-08-27T20:10:50.809Z,23.10
2017-08-27T20:13:19.656Z,23.00
2017-08-27T20:15:48.195Z,23.10
2017-08-27T20:18:16.768Z,23.10
2017-08-27T20:20:46.330Z,23.00
2017-08-27T20:23:16.506Z,23.00
2017-08-27T20:25:46.131Z,22.90
2017-08-27T20:28:14.623Z,22.80
2017-08-27T20:30:45.721Z,22.90
2017-08-27T20:33:14.788Z,22.90
2017-08-27T20:35:44.394Z,22.90
2017-08-27T20:38:13.591Z,22.90
2017-08-27T20:40:42.306Z,22.90
2017-08-27T20:43:10.755Z,22.90
2017-08-27T20:45:39.105Z,22.90
2017-08-27T20:48:07.395Z,22.80
2017-08-27T20:50:35.749Z,22.80
2017-08-27T20:53:04.306Z,22.80
2017-08-27T20:55:33.022Z,22.80
2017-08-27T20:58:01.593Z,22.90
2017-08-27T21:00:31.177Z,22.80
2017-08-27T21:02:59.628Z,22.80
2017-08-27T21:05:29.128Z,22.70
2017-08-27T21:07:58.121Z,22.70
2017-08-27T21:10:26.916Z,22.60
2017-08-27T21:12:55.264Z,22.60
2017-08-27T21:15:23.561Z,22.60
2017-08-27T21:17:51.857Z,22.50
2017-08-27T21:20:20.191Z,22.50
2017-08-27T21:22:48.455Z,22.40
2017-08-27T21:25:16.909Z,22.40
2017-08-27T21:27:45.201Z,22.30
2017-08-27T21:30:13.613Z,22.30
2017-08-27T21:32:42.099Z,22.30
2017-08-27T21:35:10.361Z,22.20
2017-08-27T21:37:39.487Z,22.20
2017-08-27T21:40:07.947Z,22.20
2017-08-27T21:42:36.393Z,22.20
2017-08-27T21:45:04.682Z,22.20
2017-08-27T21:47:32.947Z,22.20
2017-08-27T21:50:02.166Z,22.20
2017-08-27T21:52:30.451Z,22.10
2017-08-27T21:54:58.771Z,22.10
2017-08-27T21:57:27.156Z,22.10
2017-08-27T21:59:55.571Z,22.10
2017-08-27T22:02:23.967Z,22.10
2017-08-27T22:04:52.273Z,22.10
2017-08-27T22:07:20.576Z,22.00
2017-08-27T22:09:49.630Z,22.00
2017-08-27T22:12:18.105Z,21.90
2017-08-27T22:14:46.417Z,21.90
2017-08-27T22:17:14.704Z,21.90
2017-08-27T22:19:42.992Z,21.90
2017-08-27T22:22:11.351Z,21.90
2017-08-27T22:24:39.644Z,21.90
2017-08-27T22:27:07.945Z,21.90
2017-08-27T22:29:36.224Z,21.90
2017-08-27T22:32:04.670Z,21.90
2017-08-27T22:34:32.931Z,21.80
2017-08-27T22:37:01.226Z,21.90
2017-08-27T22:39:30.272Z,21.70
2017-08-27T22:41:58.577Z,21.70
2017-08-27T22:44:26.892Z,21.60
2017-08-27T22:46:55.130Z,21.40
2017-08-27T22:49:23.499Z,21.30
2017-08-27T22:51:51.777Z,21.30
2017-08-27T22:54:20.113Z,21.20
2017-08-27T22:56:48.468Z,21.20
2017-08-27T22:59:16.781Z,21.30
2017-08-27T23:01:45.070Z,21.30
2017-08-27T23:04:13.347Z,21.30
2017-08-27T23:06:41.688Z,21.30
2017-08-27T23:09:09.983Z,21.30
2017-08-27T23:11:38.278Z,21.20
2017-08-27T23:14:06.679Z,21.20
2017-08-27T23:16:35.164Z,21.10
2017-08-27T23:19:03.532Z,21.00
2017-08-27T23:21:31.859Z,20.90
2017-08-27T23:24:00.144Z,21.00
2017-08-27T23:26:28.421Z,20.80
2017-08-27T23:28:56.809Z,20.80
2017-08-27T23:31:25.076Z,20.70
2017-08-27T23:33:53.331Z,20.70
2017-08-27T23:36:21.856Z,20.60
2017-08-27T23:38:50.358Z,20.50
2017-08-27T23:41:18.610Z,20.50
2017-08-27T23:43:46.877Z,20.50
2017-08-27T23:46:15.172Z,20.40
2017-08-27T23:48:43.459Z,20.40
2017-08-27T23:51:11.718Z,20.20
2017-08-27T23:53:40.040Z,20.30
2017-08-27T23:56:08.293Z,20.20
2017-08-27T23:58:36.564Z,20.20
